sensor_id;sensor_type;location;lat;lon;timestamp;pressure;altitude;pressure_sealevel;temperature;humidity
76024;BME280;64719;52.124;6.226;2023-05-16T00:00:56;101916.47;;;9.56;100.00
76024;BME280;64719;52.124;6.226;2023-05-16T00:03:23;101912.66;;;9.44;100.00
76024;BME280;64719;52.124;6.226;2023-05-16T00:05:50;101920.97;;;9.43;100.00
76024;BME280;64719;52.124;6.226;2023-05-16T00:08:16;101931.81;;;9.43;100.00
76024;BME280;64719;52.124;6.226;2023-05-16T00:10:44;101932.78;;;9.35;100.00
76024;BME280;64719;52.124;6.226;2023-05-16T00:13:10;101940.25;;;9.26;100.00
76024;BME280;64719;52.124;6.226;2023-05-16T00:15:37;101932.25;;;9.18;100.00
76024;BME280;64719;52.124;6.226;2023-05-16T00:18:04;101928.00;;;9.09;100.00
76024;BME280;64719;52.124;6.226;2023-05-16T00:20:31;101930.72;;;9.09;100.00
76024;BME280;64719;52.124;6.226;2023-05-16T00:22:58;101923.75;;;9.00;100.00
76024;BME280;64719;52.124;6.226;2023-05-16T00:25:26;101934.31;;;8.95;100.00
76024;BME280;64719;52.124;6.226;2023-05-16T00:27:54;101935.63;;;8.99;100.00
76024;BME280;64719;52.124;6.226;2023-05-16T00:30:20;101931.44;;;8.97;100.00
76024;BME280;64719;52.124;6.226;2023-05-16T00:32:47;101933.91;;;8.92;100.00
76024;BME280;64719;52.124;6.226;2023-05-16T00:35:14;101939.13;;;8.93;100.00
76024;BME280;64719;52.124;6.226;2023-05-16T00:37:40;101940.31;;;8.91;100.00
76024;BME280;64719;52.124;6.226;2023-05-16T00:40:08;101935.69;;;8.85;100.00
76024;BME280;64719;52.124;6.226;2023-05-16T00:42:34;101945.69;;;8.84;100.00
76024;BME280;64719;52.124;6.226;2023-05-16T00:45:03;101943.81;;;8.85;100.00
76024;BME280;64719;52.124;6.226;2023-05-16T00:47:30;101941.69;;;8.80;100.00
76024;BME280;64719;52.124;6.226;2023-05-16T00:49:57;101945.75;;;8.70;100.00
76024;BME280;64719;52.124;6.226;2023-05-16T00:52:24;101945.69;;;8.63;100.00
76024;BME280;64719;52.124;6.226;2023-05-16T00:54:51;101948.63;;;8.47;100.00
76024;BME280;64719;52.124;6.226;2023-05-16T00:57:18;101955.81;;;8.40;100.00
76024;BME280;64719;52.124;6.226;2023-05-16T00:59:45;101956.22;;;8.37;100.00
76024;BME280;64719;52.124;6.226;2023-05-16T01:02:13;101954.91;;;8.33;100.00
76024;BME280;64719;52.124;6.226;2023-05-16T01:04:40;101961.47;;;8.24;100.00
76024;BME280;64719;52.124;6.226;2023-05-16T01:07:08;101959.91;;;8.22;100.00
76024;BME280;64719;52.124;6.226;2023-05-16T01:09:35;101959.31;;;8.20;100.00
76024;BME280;64719;52.124;6.226;2023-05-16T01:12:08;101958.91;;;8.08;100.00
76024;BME280;64719;52.124;6.226;2023-05-16T01:14:45;101954.75;;;8.06;100.00
76024;BME280;64719;52.124;6.226;2023-05-16T01:17:19;101948.88;;;8.02;100.00
76024;BME280;64719;52.124;6.226;2023-05-16T01:19:55;101956.91;;;7.96;100.00
76024;BME280;64719;52.124;6.226;2023-05-16T01:22:37;101962.88;;;7.91;100.00
76024;BME280;64719;52.124;6.226;2023-05-16T01:25:14;101957.47;;;7.91;100.00
76024;BME280;64719;52.124;6.226;2023-05-16T01:27:48;101964.72;;;7.76;100.00
76024;BME280;64719;52.124;6.226;2023-05-16T01:30:17;101965.38;;;7.78;100.00
76024;BME280;64719;52.124;6.226;2023-05-16T01:32:44;101969.28;;;7.76;100.00
76024;BME280;64719;52.124;6.226;2023-05-16T01:35:13;101964.19;;;7.81;100.00
76024;BME280;64719;52.124;6.226;2023-05-16T01:37:44;101969.19;;;7.69;100.00
76024;BME280;64719;52.124;6.226;2023-05-16T01:40:16;101963.13;;;7.67;100.00
76024;BME280;64719;52.124;6.226;2023-05-16T01:42:49;101966.00;;;7.66;100.00
76024;BME280;64719;52.124;6.226;2023-05-16T01:45:20;101965.75;;;7.61;100.00
76024;BME280;64719;52.124;6.226;2023-05-16T01:47:54;101956.31;;;7.57;100.00
76024;BME280;64719;52.124;6.226;2023-05-16T01:50:24;101953.97;;;7.53;100.00
76024;BME280;64719;52.124;6.226;2023-05-16T01:52:55;101958.09;;;7.49;100.00
76024;BME280;64719;52.124;6.226;2023-05-16T01:55:29;101964.97;;;7.52;100.00
76024;BME280;64719;52.124;6.226;2023-05-16T01:58:01;101971.19;;;7.38;100.00
76024;BME280;64719;52.124;6.226;2023-05-16T02:00:28;101958.34;;;7.40;100.00
76024;BME280;64719;52.124;6.226;2023-05-16T02:02:55;101973.72;;;7.39;100.00
76024;BME280;64719;52.124;6.226;2023-05-16T02:05:22;101968.19;;;7.33;100.00
76024;BME280;64719;52.124;6.226;2023-05-16T02:07:48;101970.91;;;7.33;100.00
76024;BME280;64719;52.124;6.226;2023-05-16T02:10:15;101973.97;;;7.30;100.00
76024;BME280;64719;52.124;6.226;2023-05-16T02:12:41;101964.94;;;7.37;100.00
76024;BME280;64719;52.124;6.226;2023-05-16T02:15:10;101975.44;;;7.32;100.00
76024;BME280;64719;52.124;6.226;2023-05-16T02:17:38;101973.41;;;7.34;100.00
76024;BME280;64719;52.124;6.226;2023-05-16T02:20:06;101975.00;;;7.29;100.00
76024;BME280;64719;52.124;6.226;2023-05-16T02:22:34;101972.13;;;7.30;100.00
76024;BME280;64719;52.124;6.226;2023-05-16T02:25:02;101982.13;;;7.22;100.00
76024;BME280;64719;52.124;6.226;2023-05-16T02:27:28;101982.44;;;7.27;100.00
76024;BME280;64719;52.124;6.226;2023-05-16T02:29:55;101982.66;;;7.17;100.00
76024;BME280;64719;52.124;6.226;2023-05-16T02:32:23;101977.75;;;7.21;100.00
76024;BME280;64719;52.124;6.226;2023-05-16T02:34:50;101985.91;;;7.13;100.00
76024;BME280;64719;52.124;6.226;2023-05-16T02:37:17;101978.78;;;7.20;100.00
76024;BME280;64719;52.124;6.226;2023-05-16T02:39:43;101985.78;;;7.29;100.00
76024;BME280;64719;52.124;6.226;2023-05-16T02:42:10;101983.09;;;7.29;100.00
76024;BME280;64719;52.124;6.226;2023-05-16T02:44:36;101991.06;;;7.22;100.00
76024;BME280;64719;52.124;6.226;2023-05-16T02:47:03;101988.97;;;7.10;100.00
76024;BME280;64719;52.124;6.226;2023-05-16T02:49:31;101996.91;;;7.11;100.00
76024;BME280;64719;52.124;6.226;2023-05-16T02:51:57;101999.97;;;7.08;100.00
76024;BME280;64719;52.124;6.226;2023-05-16T02:54:24;102001.34;;;7.04;100.00
76024;BME280;64719;52.124;6.226;2023-05-16T02:56:50;102008.78;;;7.02;100.00
76024;BME280;64719;52.124;6.226;2023-05-16T02:59:17;102006.06;;;7.02;100.00
76024;BME280;64719;52.124;6.226;2023-05-16T03:01:43;102009.22;;;6.91;100.00
76024;BME280;64719;52.124;6.226;2023-05-16T03:04:10;102013.09;;;6.89;100.00
76024;BME280;64719;52.124;6.226;2023-05-16T03:06:37;102013.28;;;6.87;100.00
76024;BME280;64719;52.124;6.226;2023-05-16T03:09:04;102007.66;;;6.97;100.00
76024;BME280;64719;52.124;6.226;2023-05-16T03:11:31;102011.28;;;6.81;100.00
76024;BME280;64719;52.124;6.226;2023-05-16T03:13:58;102012.38;;;6.95;100.00
76024;BME280;64719;52.124;6.226;2023-05-16T03:16:25;102014.16;;;6.80;100.00
76024;BME280;64719;52.124;6.226;2023-05-16T03:18:51;102017.56;;;6.74;100.00
76024;BME280;64719;52.124;6.226;2023-05-16T03:21:17;102018.06;;;6.77;100.00
76024;BME280;64719;52.124;6.226;2023-05-16T03:23:45;102019.09;;;6.99;100.00
76024;BME280;64719;52.124;6.226;2023-05-16T03:26:12;102019.16;;;6.91;100.00
76024;BME280;64719;52.124;6.226;2023-05-16T03:28:38;102017.03;;;6.78;100.00
76024;BME280;64719;52.124;6.226;2023-05-16T03:31:05;102019.97;;;6.69;100.00
76024;BME280;64719;52.124;6.226;2023-05-16T03:33:31;102025.84;;;6.72;100.00
76024;BME280;64719;52.124;6.226;2023-05-16T03:35:58;102029.31;;;6.58;100.00
76024;BME280;64719;52.124;6.226;2023-05-16T03:38:24;102032.56;;;6.46;100.00
76024;BME280;64719;52.124;6.226;2023-05-16T03:40:53;102032.22;;;6.49;100.00
76024;BME280;64719;52.124;6.226;2023-05-16T03:43:19;102036.41;;;6.51;100.00
76024;BME280;64719;52.124;6.226;2023-05-16T03:45:46;102040.31;;;6.49;100.00
76024;BME280;64719;52.124;6.226;2023-05-16T03:48:12;102044.66;;;6.50;100.00
76024;BME280;64719;52.124;6.226;2023-05-16T03:50:39;102046.72;;;6.48;100.00
76024;BME280;64719;52.124;6.226;2023-05-16T03:53:06;102044.03;;;6.48;100.00
76024;BME280;64719;52.124;6.226;2023-05-16T03:55:33;102049.09;;;6.43;100.00
76024;BME280;64719;52.124;6.226;2023-05-16T03:58:01;102048.56;;;6.47;100.00
76024;BME280;64719;52.124;6.226;2023-05-16T04:00:27;102054.47;;;6.51;100.00
76024;BME280;64719;52.124;6.226;2023-05-16T04:02:54;102043.50;;;6.52;100.00
76024;BME280;64719;52.124;6.226;2023-05-16T04:05:20;102055.75;;;6.63;100.00
76024;BME280;64719;52.124;6.226;2023-05-16T04:07:47;102066.19;;;6.66;100.00
76024;BME280;64719;52.124;6.226;2023-05-16T04:10:13;102065.06;;;6.83;100.00
76024;BME280;64719;52.124;6.226;2023-05-16T04:12:40;102066.25;;;6.80;100.00
76024;BME280;64719;52.124;6.226;2023-05-16T04:15:08;102072.34;;;6.82;100.00
76024;BME280;64719;52.124;6.226;2023-05-16T04:17:35;102069.38;;;6.92;100.00
76024;BME280;64719;52.124;6.226;2023-05-16T04:20:02;102074.91;;;6.98;100.00
76024;BME280;64719;52.124;6.226;2023-05-16T04:22:29;102072.19;;;7.06;100.00
76024;BME280;64719;52.124;6.226;2023-05-16T04:24:57;102071.09;;;7.15;100.00
76024;BME280;64719;52.124;6.226;2023-05-16T04:27:23;102075.88;;;7.28;100.00
76024;BME280;64719;52.124;6.226;2023-05-16T04:29:51;102072.00;;;7.30;100.00
76024;BME280;64719;52.124;6.226;2023-05-16T04:32:18;102072.59;;;7.40;100.00
76024;BME280;64719;52.124;6.226;2023-05-16T04:34:45;102076.72;;;7.51;100.00
76024;BME280;64719;52.124;6.226;2023-05-16T04:37:12;102077.84;;;7.57;100.00
76024;BME280;64719;52.124;6.226;2023-05-16T04:39:39;102077.22;;;7.69;100.00
76024;BME280;64719;52.124;6.226;2023-05-16T04:42:05;102079.00;;;8.43;100.00
76024;BME280;64719;52.124;6.226;2023-05-16T04:44:32;102079.53;;;10.89;98.72
76024;BME280;64719;52.124;6.226;2023-05-16T04:46:59;102085.91;;;12.40;85.41
76024;BME280;64719;52.124;6.226;2023-05-16T04:49:27;102088.94;;;12.76;80.52
76024;BME280;64719;52.124;6.226;2023-05-16T04:51:53;102085.84;;;13.48;75.62
76024;BME280;64719;52.124;6.226;2023-05-16T04:54:20;102094.25;;;13.46;74.42
76024;BME280;64719;52.124;6.226;2023-05-16T04:56:46;102096.06;;;13.83;72.46
76024;BME280;64719;52.124;6.226;2023-05-16T04:59:13;102095.06;;;15.17;67.65
76024;BME280;64719;52.124;6.226;2023-05-16T05:01:39;102097.91;;;13.65;68.22
76024;BME280;64719;52.124;6.226;2023-05-16T05:04:06;102096.94;;;14.69;68.09
76024;BME280;64719;52.124;6.226;2023-05-16T05:06:34;102098.31;;;13.93;69.13
76024;BME280;64719;52.124;6.226;2023-05-16T05:09:01;102098.25;;;15.44;64.85
76024;BME280;64719;52.124;6.226;2023-05-16T05:11:30;102103.03;;;14.04;67.07
76024;BME280;64719;52.124;6.226;2023-05-16T05:13:56;102097.75;;;14.69;64.88
76024;BME280;64719;52.124;6.226;2023-05-16T05:16:22;102098.88;;;16.33;60.83
76024;BME280;64719;52.124;6.226;2023-05-16T05:18:49;102105.84;;;15.83;60.02
76024;BME280;64719;52.124;6.226;2023-05-16T05:21:15;102099.34;;;14.77;62.91
76024;BME280;64719;52.124;6.226;2023-05-16T05:23:44;102106.34;;;14.55;65.33
76024;BME280;64719;52.124;6.226;2023-05-16T05:26:10;102112.47;;;15.34;62.49
76024;BME280;64719;52.124;6.226;2023-05-16T05:28:36;102111.25;;;16.24;58.98
76024;BME280;64719;52.124;6.226;2023-05-16T05:31:04;102121.47;;;15.41;60.39
76024;BME280;64719;52.124;6.226;2023-05-16T05:33:32;102118.88;;;17.47;56.53
76024;BME280;64719;52.124;6.226;2023-05-16T05:35:58;102113.38;;;18.80;53.06
76024;BME280;64719;52.124;6.226;2023-05-16T05:38:25;102115.75;;;19.14;49.52
76024;BME280;64719;52.124;6.226;2023-05-16T05:40:53;102123.28;;;19.24;48.99
76024;BME280;64719;52.124;6.226;2023-05-16T05:43:19;102113.66;;;18.78;49.74
76024;BME280;64719;52.124;6.226;2023-05-16T05:45:46;102120.84;;;19.06;48.01
76024;BME280;64719;52.124;6.226;2023-05-16T05:48:12;102123.72;;;18.73;48.00
76024;BME280;64719;52.124;6.226;2023-05-16T05:50:39;102139.34;;;19.53;48.90
76024;BME280;64719;52.124;6.226;2023-05-16T05:53:06;102135.78;;;19.84;46.88
76024;BME280;64719;52.124;6.226;2023-05-16T05:55:32;102137.34;;;19.75;45.16
76024;BME280;64719;52.124;6.226;2023-05-16T05:58:00;102138.38;;;17.90;47.65
76024;BME280;64719;52.124;6.226;2023-05-16T06:00:27;102139.69;;;18.54;47.11
76024;BME280;64719;52.124;6.226;2023-05-16T06:02:54;102133.00;;;17.67;49.01
76024;BME280;64719;52.124;6.226;2023-05-16T06:05:20;102141.84;;;20.13;45.46
76024;BME280;64719;52.124;6.226;2023-05-16T06:07:47;102132.47;;;19.82;46.52
76024;BME280;64719;52.124;6.226;2023-05-16T06:10:14;102137.09;;;19.50;47.39
76024;BME280;64719;52.124;6.226;2023-05-16T06:12:41;102149.06;;;20.56;43.10
76024;BME280;64719;52.124;6.226;2023-05-16T06:15:09;102140.53;;;21.96;39.60
76024;BME280;64719;52.124;6.226;2023-05-16T06:17:36;102138.56;;;20.99;41.97
76024;BME280;64719;52.124;6.226;2023-05-16T06:20:03;102139.81;;;21.38;40.86
76024;BME280;64719;52.124;6.226;2023-05-16T06:22:30;102149.41;;;19.69;45.11
76024;BME280;64719;52.124;6.226;2023-05-16T06:24:56;102147.19;;;19.66;44.14
76024;BME280;64719;52.124;6.226;2023-05-16T06:27:23;102146.66;;;21.16;41.51
76024;BME280;64719;52.124;6.226;2023-05-16T06:29:49;102160.09;;;20.56;42.58
76024;BME280;64719;52.124;6.226;2023-05-16T06:32:17;102157.03;;;20.47;40.78
76024;BME280;64719;52.124;6.226;2023-05-16T06:34:44;102164.97;;;20.44;43.53
76024;BME280;64719;52.124;6.226;2023-05-16T06:37:10;102155.59;;;21.43;40.55
76024;BME280;64719;52.124;6.226;2023-05-16T06:39:36;102160.72;;;22.16;38.51
76024;BME280;64719;52.124;6.226;2023-05-16T06:42:03;102156.28;;;20.62;41.06
76024;BME280;64719;52.124;6.226;2023-05-16T06:44:30;102163.81;;;16.67;50.03
76024;BME280;64719;52.124;6.226;2023-05-16T06:46:56;102158.97;;;15.93;53.72
76024;BME280;64719;52.124;6.226;2023-05-16T06:49:24;102157.97;;;20.63;44.14
76024;BME280;64719;52.124;6.226;2023-05-16T06:51:51;102149.66;;;22.06;40.66
76024;BME280;64719;52.124;6.226;2023-05-16T06:54:17;102146.88;;;21.81;38.86
76024;BME280;64719;52.124;6.226;2023-05-16T06:56:44;102161.66;;;20.83;39.78
76024;BME280;64719;52.124;6.226;2023-05-16T06:59:10;102165.50;;;20.77;39.88
76024;BME280;64719;52.124;6.226;2023-05-16T07:01:37;102159.88;;;20.62;40.70
76024;BME280;64719;52.124;6.226;2023-05-16T07:04:03;102162.91;;;20.61;40.67
76024;BME280;64719;52.124;6.226;2023-05-16T07:06:31;102152.81;;;20.08;41.85
76024;BME280;64719;52.124;6.226;2023-05-16T07:08:58;102152.34;;;20.53;40.82
76024;BME280;64719;52.124;6.226;2023-05-16T07:11:26;102146.69;;;20.28;40.75
76024;BME280;64719;52.124;6.226;2023-05-16T07:13:52;102149.56;;;21.61;40.27
76024;BME280;64719;52.124;6.226;2023-05-16T07:16:19;102155.41;;;22.70;36.92
76024;BME280;64719;52.124;6.226;2023-05-16T07:18:45;102158.78;;;21.97;38.25
76024;BME280;64719;52.124;6.226;2023-05-16T07:21:12;102153.25;;;22.22;37.06
76024;BME280;64719;52.124;6.226;2023-05-16T07:23:40;102158.13;;;21.54;37.31
76024;BME280;64719;52.124;6.226;2023-05-16T07:26:06;102149.47;;;21.31;37.51
76024;BME280;64719;52.124;6.226;2023-05-16T07:28:33;102159.94;;;20.36;39.86
76024;BME280;64719;52.124;6.226;2023-05-16T07:30:59;102164.91;;;20.34;41.35
76024;BME280;64719;52.124;6.226;2023-05-16T07:33:26;102172.13;;;20.08;41.31
76024;BME280;64719;52.124;6.226;2023-05-16T07:35:52;102171.53;;;16.24;50.13
76024;BME280;64719;52.124;6.226;2023-05-16T07:38:19;102174.50;;;14.86;54.48
76024;BME280;64719;52.124;6.226;2023-05-16T07:40:47;102181.81;;;13.94;58.92
76024;BME280;64719;52.124;6.226;2023-05-16T07:43:14;102185.16;;;12.50;69.20
76024;BME280;64719;52.124;6.226;2023-05-16T07:45:40;102198.78;;;11.98;76.28
76024;BME280;64719;52.124;6.226;2023-05-16T07:48:07;102213.63;;;12.02;80.45
76024;BME280;64719;52.124;6.226;2023-05-16T07:50:34;102220.72;;;11.30;92.38
76024;BME280;64719;52.124;6.226;2023-05-16T07:53:00;102218.09;;;10.68;100.00
76024;BME280;64719;52.124;6.226;2023-05-16T07:55:27;102216.28;;;10.06;100.00
76024;BME280;64719;52.124;6.226;2023-05-16T07:57:55;102223.53;;;9.78;100.00
76024;BME280;64719;52.124;6.226;2023-05-16T08:00:22;102228.31;;;9.40;100.00
76024;BME280;64719;52.124;6.226;2023-05-16T08:02:48;102217.53;;;9.61;100.00
76024;BME280;64719;52.124;6.226;2023-05-16T08:05:15;102207.84;;;9.73;100.00
76024;BME280;64719;52.124;6.226;2023-05-16T08:07:41;102198.56;;;9.82;100.00
76024;BME280;64719;52.124;6.226;2023-05-16T08:10:08;102195.16;;;9.95;100.00
76024;BME280;64719;52.124;6.226;2023-05-16T08:12:35;102195.56;;;10.13;100.00
76024;BME280;64719;52.124;6.226;2023-05-16T08:15:04;102201.34;;;10.65;100.00
76024;BME280;64719;52.124;6.226;2023-05-16T08:17:31;102202.38;;;11.45;100.00
76024;BME280;64719;52.124;6.226;2023-05-16T08:19:57;102200.53;;;11.59;97.55
76024;BME280;64719;52.124;6.226;2023-05-16T08:22:26;102206.44;;;14.68;96.83
76024;BME280;64719;52.124;6.226;2023-05-16T08:24:52;102205.28;;;19.22;71.14
76024;BME280;64719;52.124;6.226;2023-05-16T08:27:21;102199.19;;;20.79;60.67
76024;BME280;64719;52.124;6.226;2023-05-16T08:29:48;102190.53;;;21.84;58.63
76024;BME280;64719;52.124;6.226;2023-05-16T08:32:16;102190.56;;;21.94;50.62
76024;BME280;64719;52.124;6.226;2023-05-16T08:34:42;102187.75;;;21.79;53.15
76024;BME280;64719;52.124;6.226;2023-05-16T08:37:09;102193.16;;;21.39;51.25
76024;BME280;64719;52.124;6.226;2023-05-16T08:39:37;102187.09;;;21.42;49.34
76024;BME280;64719;52.124;6.226;2023-05-16T08:42:04;102185.06;;;22.69;45.60
76024;BME280;64719;52.124;6.226;2023-05-16T08:44:33;102173.69;;;22.46;48.31
76024;BME280;64719;52.124;6.226;2023-05-16T08:47:03;102175.94;;;21.17;46.65
76024;BME280;64719;52.124;6.226;2023-05-16T08:49:34;102175.28;;;21.71;44.18
76024;BME280;64719;52.124;6.226;2023-05-16T08:52:02;102180.06;;;21.91;45.61
76024;BME280;64719;52.124;6.226;2023-05-16T08:54:33;102171.13;;;20.56;43.54
76024;BME280;64719;52.124;6.226;2023-05-16T08:57:00;102184.03;;;15.67;59.54
76024;BME280;64719;52.124;6.226;2023-05-16T08:59:27;102185.88;;;14.83;61.60
76024;BME280;64719;52.124;6.226;2023-05-16T09:01:54;102178.25;;;18.97;52.56
76024;BME280;64719;52.124;6.226;2023-05-16T09:04:21;102185.13;;;20.44;48.31
76024;BME280;64719;52.124;6.226;2023-05-16T09:06:50;102191.69;;;20.38;48.68
76024;BME280;64719;52.124;6.226;2023-05-16T09:09:17;102194.66;;;16.97;54.53
76024;BME280;64719;52.124;6.226;2023-05-16T09:11:44;102197.75;;;15.90;61.28
76024;BME280;64719;52.124;6.226;2023-05-16T09:14:10;102193.97;;;19.40;51.00
76024;BME280;64719;52.124;6.226;2023-05-16T09:16:37;102193.88;;;21.14;45.32
76024;BME280;64719;52.124;6.226;2023-05-16T09:19:04;102193.44;;;21.42;45.45
76024;BME280;64719;52.124;6.226;2023-05-16T09:21:32;102189.22;;;23.94;39.98
76024;BME280;64719;52.124;6.226;2023-05-16T09:24:03;102189.13;;;24.48;38.09
76024;BME280;64719;52.124;6.226;2023-05-16T09:26:31;102194.84;;;23.30;39.93
76024;BME280;64719;52.124;6.226;2023-05-16T09:28:57;102180.09;;;22.51;41.39
76024;BME280;64719;52.124;6.226;2023-05-16T09:31:25;102190.56;;;22.74;40.25
76024;BME280;64719;52.124;6.226;2023-05-16T09:33:55;102182.34;;;21.32;40.59
76024;BME280;64719;52.124;6.226;2023-05-16T09:36:21;102186.72;;;22.45;41.24
76024;BME280;64719;52.124;6.226;2023-05-16T09:38:50;102183.84;;;23.00;37.66
76024;BME280;64719;52.124;6.226;2023-05-16T09:41:20;102184.22;;;22.39;38.39
76024;BME280;64719;52.124;6.226;2023-05-16T09:43:46;102166.97;;;21.51;40.38
76024;BME280;64719;52.124;6.226;2023-05-16T09:46:13;102190.47;;;20.97;43.01
76024;BME280;64719;52.124;6.226;2023-05-16T09:48:40;102195.81;;;19.56;41.37
76024;BME280;64719;52.124;6.226;2023-05-16T09:51:07;102197.13;;;20.02;39.97
76024;BME280;64719;52.124;6.226;2023-05-16T09:53:33;102188.66;;;17.12;47.07
76024;BME280;64719;52.124;6.226;2023-05-16T09:56:01;102195.09;;;19.65;44.07
76024;BME280;64719;52.124;6.226;2023-05-16T09:58:31;102199.00;;;17.72;45.27
76024;BME280;64719;52.124;6.226;2023-05-16T10:00:59;102206.25;;;16.65;47.26
76024;BME280;64719;52.124;6.226;2023-05-16T10:03:27;102205.53;;;16.69;46.64
76024;BME280;64719;52.124;6.226;2023-05-16T10:05:54;102211.59;;;16.94;45.91
76024;BME280;64719;52.124;6.226;2023-05-16T10:08:23;102199.38;;;18.92;41.27
76024;BME280;64719;52.124;6.226;2023-05-16T10:10:52;102200.50;;;17.52;44.08
76024;BME280;64719;52.124;6.226;2023-05-16T10:13:20;102209.28;;;19.52;39.69
76024;BME280;64719;52.124;6.226;2023-05-16T10:15:49;102203.34;;;21.38;38.47
76024;BME280;64719;52.124;6.226;2023-05-16T10:18:16;102199.88;;;23.77;33.92
76024;BME280;64719;52.124;6.226;2023-05-16T10:20:46;102199.41;;;22.71;36.83
76024;BME280;64719;52.124;6.226;2023-05-16T10:23:16;102195.50;;;22.97;35.51
76024;BME280;64719;52.124;6.226;2023-05-16T10:25:43;102193.91;;;22.21;34.97
76024;BME280;64719;52.124;6.226;2023-05-16T10:28:11;102196.84;;;23.05;34.08
76024;BME280;64719;52.124;6.226;2023-05-16T10:30:40;102186.28;;;21.46;34.46
76024;BME280;64719;52.124;6.226;2023-05-16T10:33:11;102183.94;;;22.35;34.21
76024;BME280;64719;52.124;6.226;2023-05-16T10:35:37;102182.44;;;23.13;34.37
76024;BME280;64719;52.124;6.226;2023-05-16T10:38:05;102184.47;;;19.09;38.27
76024;BME280;64719;52.124;6.226;2023-05-16T10:40:33;102185.88;;;20.71;35.84
76024;BME280;64719;52.124;6.226;2023-05-16T10:43:01;102177.97;;;21.46;33.64
76024;BME280;64719;52.124;6.226;2023-05-16T10:45:28;102174.38;;;21.41;32.17
76024;BME280;64719;52.124;6.226;2023-05-16T10:47:56;102174.00;;;22.39;32.90
76024;BME280;64719;52.124;6.226;2023-05-16T10:50:32;102166.53;;;22.15;34.10
76024;BME280;64719;52.124;6.226;2023-05-16T10:53:13;102176.53;;;23.88;31.89
76024;BME280;64719;52.124;6.226;2023-05-16T10:55:43;102175.50;;;20.15;35.00
76024;BME280;64719;52.124;6.226;2023-05-16T10:58:10;102178.38;;;19.07;37.10
76024;BME280;64719;52.124;6.226;2023-05-16T11:00:38;102176.22;;;19.09;39.55
76024;BME280;64719;52.124;6.226;2023-05-16T11:03:05;102180.22;;;18.42;40.29
76024;BME280;64719;52.124;6.226;2023-05-16T11:05:50;102182.66;;;19.36;38.88
76024;BME280;64719;52.124;6.226;2023-05-16T11:08:18;102178.06;;;21.00;36.71
76024;BME280;64719;52.124;6.226;2023-05-16T11:10:45;102169.03;;;18.87;40.10
76024;BME280;64719;52.124;6.226;2023-05-16T11:13:11;102176.88;;;20.49;38.44
76024;BME280;64719;52.124;6.226;2023-05-16T11:15:43;102173.59;;;18.98;41.61
76024;BME280;64719;52.124;6.226;2023-05-16T11:18:14;102168.09;;;19.62;42.00
76024;BME280;64719;52.124;6.226;2023-05-16T11:20:41;102168.63;;;21.57;36.13
76024;BME280;64719;52.124;6.226;2023-05-16T11:23:20;102174.69;;;21.49;38.94
76024;BME280;64719;52.124;6.226;2023-05-16T11:25:48;102171.50;;;18.50;40.53
76024;BME280;64719;52.124;6.226;2023-05-16T11:28:19;102174.03;;;17.74;42.11
76024;BME280;64719;52.124;6.226;2023-05-16T11:30:47;102173.13;;;17.85;43.01
76024;BME280;64719;52.124;6.226;2023-05-16T11:33:15;102161.06;;;17.86;42.71
76024;BME280;64719;52.124;6.226;2023-05-16T11:35:42;102168.88;;;19.36;41.97
76024;BME280;64719;52.124;6.226;2023-05-16T11:38:12;102171.41;;;19.91;36.97
76024;BME280;64719;52.124;6.226;2023-05-16T11:40:44;102176.22;;;20.06;39.04
76024;BME280;64719;52.124;6.226;2023-05-16T11:43:17;102174.97;;;19.38;37.75
76024;BME280;64719;52.124;6.226;2023-05-16T11:45:43;102161.28;;;21.88;35.80
76024;BME280;64719;52.124;6.226;2023-05-16T11:48:11;102170.53;;;21.52;35.54
76024;BME280;64719;52.124;6.226;2023-05-16T11:50:37;102173.13;;;19.70;37.79
76024;BME280;64719;52.124;6.226;2023-05-16T11:53:04;102170.25;;;18.96;40.20
76024;BME280;64719;52.124;6.226;2023-05-16T11:55:30;102180.41;;;17.63;43.43
76024;BME280;64719;52.124;6.226;2023-05-16T11:58:00;102175.66;;;21.13;35.85
76024;BME280;64719;52.124;6.226;2023-05-16T12:00:27;102176.47;;;22.71;33.29
76024;BME280;64719;52.124;6.226;2023-05-16T12:02:58;102172.91;;;22.60;34.01
76024;BME280;64719;52.124;6.226;2023-05-16T12:05:27;102170.38;;;20.65;32.96
76024;BME280;64719;52.124;6.226;2023-05-16T12:07:55;102175.47;;;19.35;37.28
76024;BME280;64719;52.124;6.226;2023-05-16T12:10:22;102173.34;;;18.28;40.96
76024;BME280;64719;52.124;6.226;2023-05-16T12:12:49;102182.09;;;20.82;37.54
76024;BME280;64719;52.124;6.226;2023-05-16T12:15:19;102183.91;;;22.80;33.77
76024;BME280;64719;52.124;6.226;2023-05-16T12:17:46;102188.75;;;23.87;31.56
76024;BME280;64719;52.124;6.226;2023-05-16T12:20:14;102181.16;;;22.65;33.49
76024;BME280;64719;52.124;6.226;2023-05-16T12:22:42;102186.22;;;21.31;35.15
76024;BME280;64719;52.124;6.226;2023-05-16T12:25:21;102180.03;;;21.81;31.81
76024;BME280;64719;52.124;6.226;2023-05-16T12:27:48;102183.06;;;21.75;35.08
76024;BME280;64719;52.124;6.226;2023-05-16T12:30:16;102180.63;;;19.27;37.60
76024;BME280;64719;52.124;6.226;2023-05-16T12:32:44;102185.09;;;18.40;40.10
76024;BME280;64719;52.124;6.226;2023-05-16T12:35:11;102196.75;;;20.51;36.96
76024;BME280;64719;52.124;6.226;2023-05-16T12:37:38;102181.78;;;19.57;38.28
76024;BME280;64719;52.124;6.226;2023-05-16T12:40:06;102196.34;;;18.39;39.35
76024;BME280;64719;52.124;6.226;2023-05-16T12:42:34;102205.53;;;17.99;40.75
76024;BME280;64719;52.124;6.226;2023-05-16T12:45:01;102195.53;;;17.93;40.58
76024;BME280;64719;52.124;6.226;2023-05-16T12:47:34;102193.47;;;17.56;40.11
76024;BME280;64719;52.124;6.226;2023-05-16T12:50:08;102194.44;;;16.53;42.82
76024;BME280;64719;52.124;6.226;2023-05-16T12:52:36;102202.44;;;16.13;44.93